Time;durP1;ratioP1;P1;durP2;ratioP2;P2;SDS_P1;SDS_P2;PMS_P1;PMS_P2;Temp;Humidity;BMP_temperature;BMP_pressure;BME280_temperature;BME280_humidity;BME280_pressure;Samples;Min_cycle;Max_cycle;Signal;HPM_P1;HPM_P2
2021/12/23 00:00:18;;;;;;;39.83;20.85;;;;;;;-3.27;63.38;102449.51;1678698;85;27547;-62
2021/12/23 00:02:46;;;;;;;46.63;20.60;;;;;;;-3.34;63.28;102442.09;1669153;84;25896;-61
2021/12/23 00:05:13;;;;;;;42.33;19.57;;;;;;;-3.39;63.05;102450.89;1678438;84;25812;-62
2021/12/23 00:07:40;;;;;;;39.23;19.10;;;;;;;-3.47;63.14;102455.73;1690222;84;26807;-62
2021/12/23 00:10:12;;;;;;;43.30;22.20;;;;;;;-3.54;62.90;102450.48;1674243;84;25849;-61
2021/12/23 00:12:43;;;;;;;45.20;20.35;;;;;;;-3.63;62.87;102450.95;1672294;84;27556;-62
2021/12/23 00:15:22;;;;;;;37.08;17.32;;;;;;;-3.71;63.06;102457.09;1681538;83;25802;-62
2021/12/23 00:18:04;;;;;;;45.75;20.37;;;;;;;-3.86;62.83;102456.24;1669239;84;25507;-63
2021/12/23 00:23:24;;;;;;;41.48;20.80;;;;;;;-3.94;63.47;102468.07;1665620;84;25832;-62
2021/12/23 00:25:52;;;;;;;41.70;21.90;;;;;;;-3.97;63.65;102465.47;1670858;84;27492;-62
2021/12/23 00:28:21;;;;;;;45.28;20.30;;;;;;;-3.98;63.80;102466.77;1632222;86;25522;-62
2021/12/23 00:30:48;;;;;;;44.20;20.45;;;;;;;-4.03;63.79;102461.50;1629200;86;25768;-62
2021/12/23 00:33:17;;;;;;;40.45;20.32;;;;;;;-4.13;63.59;102460.64;1661635;85;25923;-62
2021/12/23 00:35:44;;;;;;;49.05;23.18;;;;;;;-4.19;63.54;102467.23;1666086;85;25859;-62
2021/12/23 00:38:18;;;;;;;43.35;20.52;;;;;;;-4.21;63.75;102458.45;1642595;85;27514;-62
2021/12/23 00:40:40;;;;;;;41.02;19.07;;;;;;;-4.31;63.47;102456.28;1643475;86;25884;-62
2021/12/23 00:43:08;;;;;;;42.60;19.12;;;;;;;-4.36;63.73;102459.77;1642160;85;25872;-62
2021/12/23 00:45:35;;;;;;;39.42;19.35;;;;;;;-4.41;63.92;102454.06;1617291;88;26113;-61
2021/12/23 00:48:02;;;;;;;41.77;21.15;;;;;;;-4.41;63.93;102463.25;1620315;88;25690;-62
2021/12/23 00:50:29;;;;;;;44.58;20.77;;;;;;;-4.46;63.73;102452.30;1636371;85;27475;-62
2021/12/23 00:52:58;;;;;;;46.85;20.08;;;;;;;-4.50;63.84;102456.67;1682453;84;25715;-62
2021/12/23 00:55:24;;;;;;;41.70;21.50;;;;;;;-4.53;63.97;102454.48;1665348;84;25847;-62
2021/12/23 00:57:52;;;;;;;49.27;20.12;;;;;;;-4.62;64.08;102454.05;1664716;85;25982;-62
2021/12/23 01:00:20;;;;;;;40.23;20.60;;;;;;;-4.65;64.09;102457.97;1638257;85;25886;-62
2021/12/23 01:02:51;;;;;;;50.50;20.62;;;;;;;-4.73;64.10;102459.25;1645733;84;27504;-63
2021/12/23 01:05:22;;;;;;;42.33;20.62;;;;;;;-4.76;64.08;102459.27;1689556;84;25812;-63
2021/12/23 01:07:53;;;;;;;43.20;20.32;;;;;;;-4.79;64.20;102460.56;1697633;84;25883;-62
2021/12/23 01:10:22;;;;;;;47.08;20.70;;;;;;;-4.78;64.39;102472.38;1693152;84;26163;-62
2021/12/23 01:12:53;;;;;;;40.17;19.15;;;;;;;-4.77;64.52;102474.13;1678039;83;25882;-62
2021/12/23 01:18:12;;;;;;;45.67;19.17;;;;;;;-4.82;64.28;102470.63;1638833;85;25895;-61
2021/12/23 01:20:50;;;;;;;40.98;19.05;;;;;;;-4.88;64.37;102469.27;1660050;85;25733;-62
2021/12/23 01:23:12;;;;;;;48.52;20.45;;;;;;;-4.87;64.50;102472.34;1649426;85;26083;-62
2021/12/23 01:25:42;;;;;;;48.20;19.52;;;;;;;-4.90;64.30;102474.53;1657088;86;25816;-61
2021/12/23 01:28:09;;;;;;;44.00;18.82;;;;;;;-4.93;64.17;102468.39;1691767;84;27495;-62
2021/12/23 01:30:38;;;;;;;37.85;18.48;;;;;;;-5.03;64.20;102472.75;1667664;84;25775;-62
2021/12/23 01:33:08;;;;;;;43.23;18.07;;;;;;;-5.06;64.42;102463.54;1640562;86;25734;-61
2021/12/23 01:35:37;;;;;;;41.13;18.87;;;;;;;-5.07;64.82;102457.84;1640290;86;26137;-62
2021/12/23 01:38:05;;;;;;;42.25;19.57;;;;;;;-5.06;64.79;102466.16;1644696;85;25803;-62
2021/12/23 01:40:35;;;;;;;40.20;19.62;;;;;;;-5.05;64.82;102465.30;1667978;85;27540;-62
2021/12/23 01:43:03;;;;;;;40.35;18.73;;;;;;;-5.01;64.89;102470.13;1670883;84;25743;-61
2021/12/23 01:45:34;;;;;;;41.25;19.87;;;;;;;-5.00;64.90;102467.94;1667247;86;25768;-62
2021/12/23 01:48:03;;;;;;;41.77;18.90;;;;;;;-5.02;64.91;102467.95;1649411;85;26878;-62
2021/12/23 01:50:31;;;;;;;33.28;17.75;;;;;;;-5.00;64.94;102467.94;1650485;86;25488;-61
2021/12/23 01:52:59;;;;;;;43.35;19.27;;;;;;;-4.98;64.99;102468.38;1673371;85;27496;-63
2021/12/23 01:55:28;;;;;;;48.63;18.80;;;;;;;-4.97;64.86;102467.93;1658735;84;25800;-61
2021/12/23 01:57:57;;;;;;;40.03;19.30;;;;;;;-4.99;64.80;102473.64;1676754;84;25717;-61
2021/12/23 02:00:33;;;;;;;45.58;20.43;;;;;;;-4.99;64.86;102467.07;1679685;84;26788;-61
2021/12/23 02:03:02;;;;;;;42.93;20.08;;;;;;;-4.97;65.11;102471.45;1685263;84;25781;-61
2021/12/23 02:05:30;;;;;;;41.68;19.85;;;;;;;-5.01;64.77;102467.05;1661402;85;28187;-61
2021/12/23 02:07:59;;;;;;;39.65;19.92;;;;;;;-4.99;65.21;102472.32;1674847;84;25856;-60
2021/12/23 02:10:28;;;;;;;43.23;20.77;;;;;;;-4.97;65.36;102471.87;1679207;84;25804;-62
2021/12/23 02:12:56;;;;;;;46.30;20.05;;;;;;;-4.99;65.39;102471.88;1675328;84;26091;-62
2021/12/23 02:15:26;;;;;;;40.03;19.23;;;;;;;-5.01;65.36;102476.23;1668170;85;25874;-61
2021/12/23 02:17:55;;;;;;;38.30;19.35;;;;;;;-5.03;65.24;102471.44;1678602;83;27473;-61
2021/12/23 02:20:27;;;;;;;38.00;18.75;;;;;;;-5.12;65.17;102470.09;1677714;84;25827;-62
2021/12/23 02:22:54;;;;;;;48.63;20.88;;;;;;;-5.24;65.53;102470.47;1669291;84;25512;-64
2021/12/23 02:25:21;;;;;;;45.33;20.40;;;;;;;-5.31;65.45;102477.87;1659505;85;26095;-63
2021/12/23 02:27:50;;;;;;;53.05;21.25;;;;;;;-5.33;65.48;102474.36;1636180;86;25855;-62
2021/12/23 02:30:22;;;;;;;53.50;21.05;;;;;;;-5.30;65.70;102473.48;1666475;85;27427;-62
2021/12/23 02:32:54;;;;;;;47.73;21.40;;;;;;;-5.28;65.71;102480.94;1677387;85;25871;-62
2021/12/23 02:35:23;;;;;;;42.67;19.90;;;;;;;-5.29;65.68;102484.02;1689510;84;25745;-62
2021/12/23 02:37:52;;;;;;;42.65;19.37;;;;;;;-5.28;65.67;102485.73;1685373;84;26732;-62
2021/12/23 02:40:39;;;;;;;47.38;20.23;;;;;;;-5.32;65.73;102483.09;1634860;86;25802;-62
2021/12/23 02:43:19;;;;;;;42.90;20.35;;;;;;;-5.34;65.59;102490.96;1648821;85;28214;-62
2021/12/23 02:45:49;;;;;;;43.55;19.45;;;;;;;-5.42;65.36;102492.22;1641572;85;25845;-62
2021/12/23 02:48:20;;;;;;;38.85;18.55;;;;;;;-5.46;65.55;102493.50;1643254;86;25829;-62
2021/12/23 02:50:52;;;;;;;42.08;19.23;;;;;;;-5.48;65.69;102497.44;1643184;85;26120;-62
2021/12/23 02:53:19;;;;;;;42.23;20.32;;;;;;;-5.44;66.05;102491.77;1647950;85;25856;-62
2021/12/23 02:55:48;;;;;;;44.03;19.27;;;;;;;-5.41;66.12;102487.87;1637346;87;26942;-62
2021/12/23 02:58:15;;;;;;;42.35;18.42;;;;;;;-5.43;65.80;102491.80;1638217;87;25730;-62
2021/12/23 03:00:45;;;;;;;44.40;19.65;;;;;;;-5.43;65.90;102493.11;1637587;86;25835;-62
2021/12/23 03:03:12;;;;;;;48.35;19.45;;;;;;;-5.44;66.05;102495.30;1641086;85;26120;-62
2021/12/23 03:05:39;;;;;;;40.92;20.60;;;;;;;-5.41;66.02;102490.05;1679424;85;25789;-62
2021/12/23 03:08:06;;;;;;;41.02;19.23;;;;;;;-5.40;66.10;102486.55;1678217;84;27528;-62
2021/12/23 03:10:32;;;;;;;37.98;19.25;;;;;;;-5.38;66.00;102487.45;1674034;85;25952;-61
2021/12/23 03:12:59;;;;;;;38.45;19.05;;;;;;;-5.36;65.98;102490.97;1677646;85;25677;-62
2021/12/23 03:15:27;;;;;;;48.20;19.90;;;;;;;-5.37;66.00;102489.62;1674479;83;27113;-62
2021/12/23 03:17:54;;;;;;;46.73;20.15;;;;;;;-5.38;65.86;102494.01;1647314;86;25932;-61
2021/12/23 03:20:21;;;;;;;43.95;18.60;;;;;;;-5.34;65.94;102497.52;1649384;85;27502;-61
2021/12/23 03:22:50;;;;;;;41.95;19.37;;;;;;;-5.33;65.83;102498.42;1640889;85;25919;-62
2021/12/23 03:25:21;;;;;;;43.58;19.42;;;;;;;-5.35;65.82;102495.34;1653561;84;25903;-62
2021/12/23 03:27:48;;;;;;;49.85;20.00;;;;;;;-5.36;65.58;102492.69;1661364;85;26174;-62
2021/12/23 03:30:14;;;;;;;44.88;19.27;;;;;;;-5.39;65.45;102494.87;1638845;86;25817;-61
2021/12/23 03:32:41;;;;;;;54.10;19.87;;;;;;;-5.50;65.09;102481.70;1636100;86;28741;-62
2021/12/23 03:35:09;;;;;;;39.15;18.67;;;;;;;-5.59;65.19;102483.38;1659057;85;25817;-61
2021/12/23 03:37:42;;;;;;;41.80;20.43;;;;;;;-5.61;65.61;102489.93;1672553;83;26473;-61
2021/12/23 03:40:13;;;;;;;37.35;19.30;;;;;;;-5.60;65.96;102491.69;1656862;84;26115;-61
2021/12/23 03:42:40;;;;;;;60.45;22.07;;;;;;;-5.56;65.96;102489.96;1670224;84;25792;-62
2021/12/23 03:45:10;;;;;;;44.93;19.98;;;;;;;-5.63;65.67;102485.55;1626169;87;28491;-62
2021/12/23 03:47:37;;;;;;;48.45;22.27;;;;;;;-5.63;65.97;102482.92;1661165;85;25969;-61
2021/12/23 03:50:07;;;;;;;46.53;21.85;;;;;;;-5.64;65.87;102490.34;1636315;86;25848;-68
2021/12/23 03:52:35;;;;;;;43.25;20.52;;;;;;;-5.71;65.63;102495.97;1619076;86;26066;-61
2021/12/23 03:55:03;;;;;;;42.23;20.43;;;;;;;-5.87;65.32;102488.45;1650999;85;25938;-61
2021/12/23 03:57:29;;;;;;;41.55;19.62;;;;;;;-6.01;65.42;102493.63;1681488;84;27485;-61
2021/12/23 03:59:56;;;;;;;39.70;18.95;;;;;;;-6.02;65.72;102498.41;1679401;84;25774;-61
2021/12/23 04:02:25;;;;;;;41.25;19.62;;;;;;;-6.02;66.07;102499.72;1685029;84;25897;-62
2021/12/23 04:04:52;;;;;;;41.40;18.77;;;;;;;-6.04;65.89;102497.07;1670477;84;26105;-61
2021/12/23 04:07:19;;;;;;;45.88;20.27;;;;;;;-6.07;65.91;102487.89;1664887;84;25456;-61
2021/12/23 04:09:45;;;;;;;41.45;20.20;;;;;;;-6.15;65.66;102492.20;1663388;84;27472;-61
2021/12/23 04:12:12;;;;;;;45.20;20.90;;;;;;;-6.26;65.48;102485.97;1660593;84;25868;-61
2021/12/23 04:14:41;;;;;;;37.60;18.15;;;;;;;-6.31;65.73;102493.34;1642852;85;26595;-61
2021/12/23 04:17:08;;;;;;;43.90;20.20;;;;;;;-6.32;65.98;102490.27;1658377;84;26142;-61
2021/12/23 04:19:36;;;;;;;50.73;24.82;;;;;;;-6.40;65.80;102497.18;1662425;85;53949;-61
2021/12/23 04:22:03;;;;;;;57.08;25.43;;;;;;;-6.45;65.79;102493.66;1659749;85;27468;-61
2021/12/23 04:24:30;;;;;;;58.42;26.10;;;;;;;-6.52;65.75;102493.16;1647271;86;25807;-61
2021/12/23 04:26:58;;;;;;;60.78;21.05;;;;;;;-6.56;65.96;102495.28;1646996;86;25881;-61
2021/12/23 04:29:25;;;;;;;51.05;21.75;;;;;;;-6.61;65.99;102493.92;1652442;85;26149;-61
2021/12/23 04:31:52;;;;;;;48.58;21.42;;;;;;;-6.64;65.99;102495.22;1653001;85;25748;-61
2021/12/23 04:34:19;;;;;;;41.35;18.77;;;;;;;-6.62;66.22;102498.30;1660340;85;27520;-61
2021/12/23 04:36:46;;;;;;;39.27;18.60;;;;;;;-6.55;66.24;102495.73;1666607;84;25809;-61
2021/12/23 04:39:13;;;;;;;47.38;20.15;;;;;;;-6.53;66.33;102494.02;1633178;86;25750;-64
2021/12/23 04:41:40;;;;;;;38.95;19.50;;;;;;;-6.49;66.48;102491.44;1649720;85;26119;-61
2021/12/23 04:44:07;;;;;;;45.33;18.52;;;;;;;-6.43;66.34;102506.75;1661331;85;27300;-62
2021/12/23 04:46:34;;;;;;;43.40;19.15;;;;;;;-6.44;66.32;102508.51;1670503;84;27476;-62
2021/12/23 04:49:04;;;;;;;43.83;19.27;;;;;;;-6.45;66.29;102509.37;1667752;85;25835;-62
2021/12/23 04:51:31;;;;;;;41.08;17.20;;;;;;;-6.47;66.08;102506.74;1667653;85;25851;-61
2021/12/23 04:53:57;;;;;;;48.25;20.37;;;;;;;-6.52;66.28;102506.24;1637719;85;26073;-62
2021/12/23 04:56:24;;;;;;;42.33;20.52;;;;;;;-6.56;66.51;102502.72;1660008;85;25823;-62
2021/12/23 04:58:51;;;;;;;44.23;20.10;;;;;;;-6.54;66.59;102499.66;1657411;86;28170;-62
2021/12/23 05:01:28;;;;;;;42.98;20.17;;;;;;;-6.42;66.99;102496.73;1659055;85;25741;-61
2021/12/23 05:03:55;;;;;;;45.48;19.67;;;;;;;-6.34;67.01;102501.19;1660893;85;25749;-63
2021/12/23 05:06:22;;;;;;;44.67;19.48;;;;;;;-6.24;66.85;102499.97;1661106;85;26764;-63
2021/12/23 05:08:49;;;;;;;41.35;18.87;;;;;;;-6.19;66.67;102503.08;1662715;85;25508;-62
2021/12/23 05:11:16;;;;;;;38.83;19.27;;;;;;;-6.11;66.74;102510.12;1659123;85;27506;-62
2021/12/23 05:13:47;;;;;;;42.73;19.07;;;;;;;-6.05;66.82;102507.55;1673109;84;25785;-62
2021/12/23 05:16:16;;;;;;;35.90;18.62;;;;;;;-6.05;66.69;102504.48;1666257;84;25708;-62
2021/12/23 05:18:44;;;;;;;48.73;20.60;;;;;;;-6.03;66.74;102504.52;1641194;86;26922;-62
2021/12/23 05:21:11;;;;;;;38.38;18.17;;;;;;;-5.99;66.58;102499.73;1674699;84;26753;-62
2021/12/23 05:23:39;;;;;;;43.83;19.57;;;;;;;-5.94;66.59;102502.35;1647013;85;27561;-62
2021/12/23 05:26:07;;;;;;;48.92;21.12;;;;;;;-5.89;66.76;102498.91;1676020;84;25742;-63
2021/12/23 05:28:36;;;;;;;38.48;20.32;;;;;;;-5.85;66.78;102500.70;1663907;85;25868;-62
2021/12/23 05:31:04;;;;;;;41.77;20.55;;;;;;;-5.76;66.90;102501.19;1665244;85;26885;-62
2021/12/23 05:33:31;;;;;;;38.58;19.40;;;;;;;-5.68;67.04;102498.63;1664930;84;25835;-62
2021/12/23 05:36:01;;;;;;;35.58;17.15;;;;;;;-5.66;66.77;102495.14;1674585;83;27466;-63
2021/12/23 05:38:28;;;;;;;40.40;21.45;;;;;;;-5.67;66.33;102496.01;1656711;85;25751;-63
2021/12/23 05:40:55;;;;;;;49.77;20.55;;;;;;;-5.72;66.22;102494.22;1648248;83;25781;-63
2021/12/23 05:43:21;;;;;;;43.08;19.70;;;;;;;-5.71;66.41;102498.59;1645876;86;26860;-64
2021/12/23 05:45:48;;;;;;;46.80;21.87;;;;;;;-5.64;66.73;102492.97;1675173;84;25949;-63
2021/12/23 05:48:15;;;;;;;49.35;21.62;;;;;;;-5.60;66.69;102501.31;1670623;84;27486;-64
2021/12/23 05:50:43;;;;;;;44.67;20.40;;;;;;;-5.58;66.67;102505.70;1669559;85;25545;-63
2021/12/23 05:53:09;;;;;;;37.33;19.15;;;;;;;-5.56;66.66;102502.62;1657644;85;25904;-63
2021/12/23 05:55:36;;;;;;;47.65;21.70;;;;;;;-5.53;66.72;102502.66;1650126;85;26584;-63
2021/12/23 05:58:03;;;;;;;47.67;22.10;;;;;;;-5.53;66.57;102498.72;1670067;84;25729;-63
2021/12/23 06:00:33;;;;;;;50.78;21.45;;;;;;;-5.52;66.61;102503.55;1676444;83;27500;-63
2021/12/23 06:03:02;;;;;;;44.10;20.35;;;;;;;-5.51;66.68;102508.80;1675840;84;26531;-63
2021/12/23 06:05:29;;;;;;;46.68;18.92;;;;;;;-5.59;66.09;102517.05;1669737;84;25777;-61
2021/12/23 06:07:58;;;;;;;44.88;19.07;;;;;;;-5.71;66.04;102507.77;1662920;84;26042;-62
2021/12/23 06:10:25;;;;;;;40.38;18.87;;;;;;;-5.78;65.99;102514.70;1658836;84;27338;-63
2021/12/23 06:12:52;;;;;;;48.55;19.37;;;;;;;-5.83;66.06;102522.53;1661714;85;27481;-63
2021/12/23 06:15:19;;;;;;;39.75;18.25;;;;;;;-5.85;66.26;102522.09;1659629;85;25814;-63
2021/12/23 06:17:47;;;;;;;48.35;20.60;;;;;;;-5.92;66.14;102517.25;1633010;86;25537;-62
2021/12/23 06:20:15;;;;;;;44.38;19.95;;;;;;;-5.97;66.14;102513.70;1664023;85;26232;-62
2021/12/23 06:22:42;;;;;;;48.60;22.02;;;;;;;-6.04;66.14;102510.62;1656268;86;25948;-62
2021/12/23 06:25:12;;;;;;;61.58;24.18;;;;;;;-6.02;66.25;102519.38;1645783;85;28244;-62
2021/12/23 06:27:41;;;;;;;45.75;22.07;;;;;;;-6.04;66.20;102519.79;1672448;84;25817;-61
2021/12/23 06:30:21;;;;;;;53.78;25.72;;;;;;;-6.19;65.63;102517.91;1662989;84;25537;-62
2021/12/23 06:32:52;;;;;;;42.53;18.45;;;;;;;-6.24;65.91;102523.09;1660882;84;26775;-61
2021/12/23 06:35:22;;;;;;;49.38;20.45;;;;;;;-6.23;66.17;102513.07;1661661;84;25786;-63
2021/12/23 06:37:52;;;;;;;39.25;19.57;;;;;;;-6.22;66.26;102513.52;1643722;85;27478;-62
2021/12/23 06:40:20;;;;;;;38.08;17.70;;;;;;;-6.33;66.00;102513.43;1665483;85;25768;-62
2021/12/23 06:42:48;;;;;;;39.78;18.23;;;;;;;-6.42;66.44;102523.81;1632684;87;25751;-61
2021/12/23 06:45:16;;;;;;;40.78;18.57;;;;;;;-6.49;66.29;102520.66;1665961;83;26097;-61
2021/12/23 06:47:44;;;;;;;38.05;18.75;;;;;;;-6.46;66.51;102526.83;1675617;84;25776;-62
2021/12/23 06:50:12;;;;;;;54.60;24.25;;;;;;;-6.35;66.78;102527.34;1668751;84;28224;-61
2021/12/23 06:52:40;;;;;;;49.38;19.87;;;;;;;-6.25;66.60;102511.31;1640326;85;25777;-62
2021/12/23 06:55:11;;;;;;;47.05;21.90;;;;;;;-6.23;66.29;102514.83;1629257;86;25731;-62
2021/12/23 06:57:41;;;;;;;49.53;23.10;;;;;;;-6.20;66.31;102522.28;1641783;86;26095;-61
2021/12/23 07:00:14;;;;;;;48.00;21.23;;;;;;;-6.16;66.26;102522.73;1648554;85;25863;-62
2021/12/23 07:02:42;;;;;;;55.85;25.02;;;;;;;-6.22;65.83;102520.48;1655594;85;27450;-61
2021/12/23 07:05:14;;;;;;;66.85;27.95;;;;;;;-6.27;65.90;102513.03;1645321;85;25938;-61
2021/12/23 07:07:53;;;;;;;60.55;28.52;;;;;;;-6.25;66.10;102520.48;1655799;86;25761;-61
2021/12/23 07:10:14;;;;;;;75.97;28.00;;;;;;;-6.19;66.29;102516.59;1666113;85;26079;-62
2021/12/23 07:12:40;;;;;;;54.95;25.50;;;;;;;-6.12;66.12;102527.56;1682401;84;26389;-62
2021/12/23 07:15:08;;;;;;;74.50;26.27;;;;;;;-6.08;66.00;102527.16;1658328;84;27532;-60
2021/12/23 07:17:35;;;;;;;54.42;23.30;;;;;;;-6.01;66.05;102529.86;1645115;85;25761;-61
2021/12/23 07:20:05;;;;;;;57.08;22.85;;;;;;;-5.93;65.67;102526.39;1640924;85;25727;-61
2021/12/23 07:22:32;;;;;;;47.33;21.60;;;;;;;-5.88;65.66;102512.46;1636206;87;26059;-61
2021/12/23 07:24:59;;;;;;;46.42;21.70;;;;;;;-5.79;65.66;102512.98;1676701;84;25794;-62
2021/12/23 07:27:26;;;;;;;59.15;23.73;;;;;;;-5.74;65.62;102507.77;1638069;86;27489;-60
2021/12/23 07:29:52;;;;;;;50.48;22.70;;;;;;;-5.73;65.22;102509.50;1638728;86;26185;-61
2021/12/23 07:32:19;;;;;;;41.68;19.80;;;;;;;-5.73;65.18;102509.08;1622207;86;26440;-62
2021/12/23 07:34:48;;;;;;;58.38;25.10;;;;;;;-5.62;65.28;102507.84;1615316;87;26131;-61
2021/12/23 07:37:24;;;;;;;49.75;20.10;;;;;;;-5.55;65.00;102514.87;1663196;85;25845;-61
2021/12/23 07:39:53;;;;;;;36.77;17.07;;;;;;;-5.53;64.64;102511.83;1647072;85;27453;-61
2021/12/23 07:42:22;;;;;;;40.50;19.45;;;;;;;-5.51;64.63;102510.52;1639356;85;25764;-61
2021/12/23 07:44:49;;;;;;;44.33;18.05;;;;;;;-5.44;64.64;102506.20;1643647;85;25700;-61
2021/12/23 07:47:17;;;;;;;32.85;15.43;;;;;;;-5.28;64.80;102513.73;1632821;85;26118;-61
2021/12/23 07:49:45;;;;;;;43.10;18.20;;;;;;;-5.28;63.67;102515.05;1664817;84;25816;-62
2021/12/23 07:52:12;;;;;;;38.20;17.73;;;;;;;-5.30;63.66;102508.91;1657142;85;27484;-62
2021/12/23 07:54:39;;;;;;;36.93;14.50;;;;;;;-5.23;63.77;102510.27;1667534;84;25841;-62
2021/12/23 07:57:06;;;;;;;39.38;15.43;;;;;;;-5.14;63.79;102512.05;1613730;86;25987;-62
2021/12/23 07:59:36;;;;;;;55.38;18.73;;;;;;;-5.07;63.61;102509.02;1641612;84;26764;-62
2021/12/23 08:02:04;;;;;;;63.17;18.75;;;;;;;-5.04;63.68;102507.73;1632400;85;25835;-62
2021/12/23 08:04:33;;;;;;;38.05;16.97;;;;;;;-4.94;63.31;102507.33;1661684;84;28162;-62
2021/12/23 08:07:02;;;;;;;32.38;14.90;;;;;;;-4.82;63.36;102510.42;1666553;85;26349;-62
2021/12/23 08:09:30;;;;;;;51.28;19.98;;;;;;;-4.71;62.58;102513.97;1665554;86;25795;-63
2021/12/23 08:11:59;;;;;;;41.55;17.48;;;;;;;-4.59;62.44;102506.56;1666125;86;26098;-62
2021/12/23 08:14:26;;;;;;;40.58;17.25;;;;;;;-4.39;62.71;102498.72;1673921;84;26289;-62
2021/12/23 08:16:53;;;;;;;39.08;17.75;;;;;;;-3.96;62.18;102504.03;1678693;84;27483;-62
2021/12/23 08:19:19;;;;;;;47.85;21.20;;;;;;;-3.40;60.96;102493.86;1661948;85;25863;-63
2021/12/23 08:21:48;;;;;;;41.55;18.48;;;;;;;-2.97;60.39;102503.39;1648014;85;25833;-63
2021/12/23 08:24:17;;;;;;;38.50;18.82;;;;;;;-2.59;59.29;102495.71;1630352;85;26161;-63
2021/12/23 08:26:51;;;;;;;49.60;21.70;;;;;;;-2.09;59.02;102498.89;1650888;84;27284;-62
2021/12/23 08:29:17;;;;;;;37.25;19.62;;;;;;;-1.60;58.32;102492.30;1660662;84;29645;-63
2021/12/23 08:31:41;;;;;;;43.45;20.20;;;;;;;-1.16;57.70;102490.08;1643363;85;25824;-62
2021/12/23 08:34:08;;;;;;;48.50;21.23;;;;;;;-0.75;56.93;102492.64;1655863;84;26511;-63
2021/12/23 08:36:35;;;;;;;52.65;24.82;;;;;;;-0.39;55.84;102491.69;1645725;85;25740;-62
2021/12/23 08:39:03;;;;;;;38.23;19.45;;;;;;;-0.07;55.58;102485.03;1645031;86;25829;-62
2021/12/23 08:41:30;;;;;;;53.23;21.65;;;;;;;0.22;55.00;102487.64;1648412;85;27417;-62
2021/12/23 08:44:00;;;;;;;40.58;19.02;;;;;;;0.56;54.19;102480.83;1650722;83;25935;-62
2021/12/23 08:46:27;;;;;;;40.43;20.27;;;;;;;0.86;53.99;102483.33;1677195;85;26382;-61
2021/12/23 08:48:53;;;;;;;40.30;20.27;;;;;;;1.20;53.46;102479.09;1684977;84;26134;-62
2021/12/23 08:51:22;;;;;;;51.35;22.13;;;;;;;1.59;52.79;102472.92;1661248;84;25744;-62
2021/12/23 08:53:49;;;;;;;42.25;21.60;;;;;;;1.67;52.29;102466.98;1643311;86;27498;-62
2021/12/23 08:56:18;;;;;;;50.23;22.73;;;;;;;1.76;52.39;102468.08;1651555;85;27319;-61
2021/12/23 08:58:45;;;;;;;46.63;22.65;;;;;;;2.17;52.39;102452.02;1660002;86;25654;-62
2021/12/23 09:01:14;;;;;;;49.53;23.05;;;;;;;2.56;51.39;102441.23;1657485;84;26302;-63
2021/12/23 09:03:40;;;;;;;43.65;22.55;;;;;;;2.78;48.85;102437.51;1663925;84;25868;-62
2021/12/23 09:06:09;;;;;;;49.67;21.73;;;;;;;2.85;49.90;102442.20;1649137;86;27491;-62
2021/12/23 09:08:36;;;;;;;42.20;21.70;;;;;;;3.16;49.78;102430.63;1642181;86;25919;-62
2021/12/23 09:11:04;;;;;;;41.70;20.65;;;;;;;3.24;49.69;102425.94;1673322;84;25444;-62
2021/12/23 09:13:31;;;;;;;39.30;20.48;;;;;;;3.56;50.16;102417.84;1672007;84;26116;-63
2021/12/23 09:15:59;;;;;;;40.67;18.62;;;;;;;3.85;48.70;102411.58;1647817;85;25849;-63
2021/12/23 09:18:27;;;;;;;39.60;19.57;;;;;;;4.07;48.34;102408.16;1677806;84;27488;-63
2021/12/23 09:20:56;;;;;;;37.42;18.55;;;;;;;4.20;47.55;102405.92;1687008;84;25653;-62
2021/12/23 09:23:27;;;;;;;50.78;19.52;;;;;;;4.55;47.98;102401.11;1657646;85;25829;-64
2021/12/23 09:25:57;;;;;;;43.15;19.85;;;;;;;4.68;45.83;102395.73;1626296;87;26045;-63
2021/12/23 09:33:56;;;;;;;37.53;18.48;;;;;;;5.30;45.86;102373.77;1656313;85;25921;-62
2021/12/23 09:36:23;;;;;;;33.63;16.87;;;;;;;5.57;44.47;102373.12;1650489;86;25915;-63
2021/12/23 09:38:53;;;;;;;38.85;17.27;;;;;;;5.68;43.73;102369.14;1648109;84;27085;-60
2021/12/23 09:41:22;;;;;;;42.33;17.32;;;;;;;5.66;43.56;102356.31;1659061;85;25833;-63
2021/12/23 09:43:51;;;;;;;41.45;17.85;;;;;;;5.92;43.57;102359.17;1647596;86;27503;-63
2021/12/23 09:46:22;;;;;;;44.77;19.00;;;;;;;5.92;43.08;102345.37;1663606;85;25830;-64
2021/12/23 09:48:50;;;;;;;38.67;17.27;;;;;;;5.76;43.17;102341.16;1682136;84;25809;-63
2021/12/23 09:51:22;;;;;;;32.75;18.12;;;;;;;5.48;40.82;102339.66;1688350;84;26746;-64
2021/12/23 09:53:59;;;;;;;38.63;17.67;;;;;;;5.37;42.32;102335.70;1670585;84;25972;-64
2021/12/23 09:56:28;;;;;;;43.98;19.87;;;;;;;5.80;41.34;102331.20;1632251;86;27462;-63
2021/12/23 09:58:58;;;;;;;30.32;15.38;;;;;;;6.22;39.72;102332.08;1637939;86;25729;-63
2021/12/23 10:01:29;;;;;;;18.17;9.45;;;;;;;6.54;39.75;102319.91;1655124;83;25712;-63
2021/12/23 10:03:56;;;;;;;169.15;16.12;;;;;;;6.95;35.33;102322.03;1633306;86;26175;-63
2021/12/23 10:06:26;;;;;;;39.80;10.60;;;;;;;6.90;36.66;102314.23;1669600;83;25736;-64
2021/12/23 10:08:55;;;;;;;24.40;11.18;;;;;;;7.18;36.58;102304.81;1667394;85;27585;-64
2021/12/23 10:11:46;;;;;;;19.87;10.85;;;;;;;7.57;34.02;102301.08;1676566;85;25743;-64
2021/12/23 10:33:28;;;;;;;15.80;9.85;;;;;;;9.30;34.21;102258.52;1679266;84;26434;-65
2021/12/23 10:38:32;;;;;;;30.40;12.75;;;;;;;9.84;31.83;102246.34;1665282;84;25745;-63
2021/12/23 10:41:04;;;;;;;19.70;10.45;;;;;;;9.97;31.69;102242.41;1682591;84;25683;-65
2021/12/23 10:43:44;;;;;;;17.55;11.95;;;;;;;9.99;33.25;102240.49;1656984;85;27015;-65
2021/12/23 10:46:20;;;;;;;22.77;11.15;;;;;;;10.16;31.16;102234.06;1630906;86;25477;-64
2021/12/23 10:49:21;;;;;;;25.97;12.78;;;;;;;10.23;29.95;102232.70;1639618;85;27523;-66
2021/12/23 10:52:04;;;;;;;29.87;12.13;;;;;;;9.99;31.29;102232.42;1656685;85;25991;-65
2021/12/23 10:58:01;;;;;;;25.37;15.55;;;;;;;10.07;31.71;102218.52;1631880;86;26573;-64
2021/12/23 11:00:36;;;;;;;29.95;14.18;;;;;;;10.23;30.79;102215.69;1615844;87;26323;-65
2021/12/23 11:03:37;;;;;;;22.93;13.00;;;;;;;10.51;32.36;102216.63;1612483;87;26922;-65
2021/12/23 11:06:13;;;;;;;23.45;14.00;;;;;;;10.76;31.95;102212.69;1633366;86;25809;-66
2021/12/23 11:38:48;;;;;;;31.87;15.48;;;;;;;8.01;30.21;102168.84;1590280;88;25848;-65
2021/12/23 11:43:57;;;;;;;30.85;16.05;;;;;;;7.01;31.27;102158.51;1609349;87;25909;-65
2021/12/23 11:46:34;;;;;;;31.25;15.60;;;;;;;6.45;31.74;102155.92;1602455;89;27443;-64
2021/12/23 11:49:06;;;;;;;27.30;14.87;;;;;;;5.92;32.44;102159.73;1610349;88;26047;-63
2021/12/23 11:51:34;;;;;;;24.67;14.05;;;;;;;5.43;32.58;102156.62;1629864;86;25964;-64
2021/12/23 11:54:05;;;;;;;22.67;13.35;;;;;;;4.77;33.62;102154.55;1643610;85;26641;-65
2021/12/23 11:56:35;;;;;;;24.45;13.88;;;;;;;4.28;34.06;102156.09;1623023;86;25833;-65
2021/12/23 11:59:04;;;;;;;31.93;14.38;;;;;;;3.93;34.55;102154.35;1663493;84;27489;-64
2021/12/23 12:01:41;;;;;;;27.90;14.28;;;;;;;3.50;35.38;102147.98;1656246;85;26561;-63
2021/12/23 12:04:12;;;;;;;37.80;14.90;;;;;;;3.25;35.31;102140.43;1642567;84;25537;-63
2021/12/23 12:06:43;;;;;;;24.90;13.25;;;;;;;3.16;35.39;102138.57;1658555;85;26086;-63
2021/12/23 12:09:22;;;;;;;24.23;12.65;;;;;;;3.05;35.15;102134.97;1627450;86;25914;-63
2021/12/23 12:12:09;;;;;;;30.95;14.63;;;;;;;2.95;35.39;102133.08;1643306;85;26990;-64
2021/12/23 12:14:43;;;;;;;27.10;13.28;;;;;;;2.89;35.73;102127.50;1663739;84;25876;-63
2021/12/23 12:17:33;;;;;;;21.10;11.53;;;;;;;2.85;35.29;102129.88;1658086;85;25774;-63
2021/12/23 12:20:21;;;;;;;22.82;10.90;;;;;;;2.57;35.60;102129.48;1633120;86;26175;-64
2021/12/23 12:22:55;;;;;;;20.97;9.98;;;;;;;2.33;34.63;102125.83;1648359;83;25802;-63
2021/12/23 12:25:30;;;;;;;26.00;10.30;;;;;;;2.18;34.41;102125.86;1623600;86;27522;-63
2021/12/23 12:28:02;;;;;;;22.02;12.05;;;;;;;1.99;34.98;102125.10;1639889;86;25918;-63
2021/12/23 12:30:49;;;;;;;22.42;10.98;;;;;;;1.77;35.29;102129.34;1649866;86;25783;-64